sensor_id;sensor_type;location;lat;lon;timestamp;pressure;altitude;pressure_sealevel;temperature;humidity
48204;BME280;33994;50.998;5.864;2023-02-25T00:00:44;100311.50;;;3.64;90.00
48204;BME280;33994;50.998;5.864;2023-02-25T00:03:50;100312.38;;;3.64;89.85
48204;BME280;33994;50.998;5.864;2023-02-25T00:06:53;100314.13;;;3.69;89.77
48204;BME280;33994;50.998;5.864;2023-02-25T00:09:58;100307.19;;;3.64;89.81
48204;BME280;33994;50.998;5.864;2023-02-25T00:13:03;100308.06;;;3.63;89.71
48204;BME280;33994;50.998;5.864;2023-02-25T00:16:07;100314.09;;;3.62;89.98
48204;BME280;33994;50.998;5.864;2023-02-25T00:19:10;100327.03;;;3.64;89.48
48204;BME280;33994;50.998;5.864;2023-02-25T00:22:13;100322.75;;;3.68;89.55
48204;BME280;33994;50.998;5.864;2023-02-25T00:25:17;100325.34;;;3.66;89.59
48204;BME280;33994;50.998;5.864;2023-02-25T00:28:21;100328.75;;;3.65;89.72
48204;BME280;33994;50.998;5.864;2023-02-25T00:31:24;100320.16;;;3.66;89.44
48204;BME280;33994;50.998;5.864;2023-02-25T00:34:27;100314.97;;;3.69;89.50
48204;BME280;33994;50.998;5.864;2023-02-25T00:37:30;100316.72;;;3.67;89.46
48204;BME280;33994;50.998;5.864;2023-02-25T00:40:38;100313.25;;;3.65;89.58
48204;BME280;33994;50.998;5.864;2023-02-25T00:43:43;100308.06;;;3.63;89.58
48204;BME280;33994;50.998;5.864;2023-02-25T00:46:47;100314.09;;;3.59;89.59
48204;BME280;33994;50.998;5.864;2023-02-25T00:49:50;100314.94;;;3.60;89.69
48204;BME280;33994;50.998;5.864;2023-02-25T00:52:53;100308.91;;;3.59;89.93
48204;BME280;33994;50.998;5.864;2023-02-25T00:56:01;100307.19;;;3.58;89.95
48204;BME280;33994;50.998;5.864;2023-02-25T00:59:04;100311.50;;;3.58;89.88
48204;BME280;33994;50.998;5.864;2023-02-25T01:02:07;100302.03;;;3.58;90.01
48204;BME280;33994;50.998;5.864;2023-02-25T01:05:12;100306.34;;;3.58;89.93
48204;BME280;33994;50.998;5.864;2023-02-25T01:08:16;100302.00;;;3.57;89.87
48204;BME280;33994;50.998;5.864;2023-02-25T01:11:22;100312.34;;;3.55;89.98
48204;BME280;33994;50.998;5.864;2023-02-25T01:14:26;100319.22;;;3.50;89.85
48204;BME280;33994;50.998;5.864;2023-02-25T01:17:29;100319.19;;;3.47;90.01
48204;BME280;33994;50.998;5.864;2023-02-25T01:20:36;100319.16;;;3.46;90.03
48204;BME280;33994;50.998;5.864;2023-02-25T01:23:39;100319.19;;;3.47;89.64
48204;BME280;33994;50.998;5.864;2023-02-25T01:26:45;100326.91;;;3.43;89.59
48204;BME280;33994;50.998;5.864;2023-02-25T01:29:49;100320.00;;;3.42;89.55
48204;BME280;33994;50.998;5.864;2023-02-25T01:32:52;100326.03;;;3.39;89.50
48204;BME280;33994;50.998;5.864;2023-02-25T01:35:55;100319.97;;;3.37;89.01
48204;BME280;33994;50.998;5.864;2023-02-25T01:38:58;100325.13;;;3.34;89.01
48204;BME280;33994;50.998;5.864;2023-02-25T01:42:04;100320.78;;;3.30;88.96
48204;BME280;33994;50.998;5.864;2023-02-25T01:45:24;100319.91;;;3.25;88.91
48204;BME280;33994;50.998;5.864;2023-02-25T01:48:31;100315.53;;;3.19;88.79
48204;BME280;33994;50.998;5.864;2023-02-25T01:51:36;100313.81;;;3.17;88.74
48204;BME280;33994;50.998;5.864;2023-02-25T01:54:39;100319.00;;;3.17;88.60
48204;BME280;33994;50.998;5.864;2023-02-25T01:57:45;100330.16;;;3.15;88.54
48204;BME280;33994;50.998;5.864;2023-02-25T02:00:49;100330.16;;;3.15;88.62
48204;BME280;33994;50.998;5.864;2023-02-25T02:03:52;100343.09;;;3.15;88.44
48204;BME280;33994;50.998;5.864;2023-02-25T02:06:56;100331.06;;;3.18;88.34
48204;BME280;33994;50.998;5.864;2023-02-25T02:10:00;100337.94;;;3.19;88.25
48204;BME280;33994;50.998;5.864;2023-02-25T02:13:05;100334.50;;;3.18;88.12
48204;BME280;33994;50.998;5.864;2023-02-25T02:16:31;100335.34;;;3.15;88.16
48204;BME280;33994;50.998;5.864;2023-02-25T02:19:42;100326.72;;;3.13;88.00
48204;BME280;33994;50.998;5.864;2023-02-25T02:26:48;100325.00;;;3.12;88.02
48204;BME280;33994;50.998;5.864;2023-02-25T02:33:39;100335.31;;;3.11;87.88
48204;BME280;33994;50.998;5.864;2023-02-25T02:36:53;100320.66;;;3.08;87.81
48204;BME280;33994;50.998;5.864;2023-02-25T02:40:06;100331.84;;;3.06;88.04
48204;BME280;33994;50.998;5.864;2023-02-25T02:43:22;100337.84;;;3.06;88.21
48204;BME280;33994;50.998;5.864;2023-02-25T02:46:33;100338.72;;;3.07;88.31
48204;BME280;33994;50.998;5.864;2023-02-25T02:49:42;100337.03;;;3.09;88.36
48204;BME280;33994;50.998;5.864;2023-02-25T02:52:50;100348.22;;;3.09;88.53
48204;BME280;33994;50.998;5.864;2023-02-25T02:55:57;100354.25;;;3.11;88.38
48204;BME280;33994;50.998;5.864;2023-02-25T02:59:04;100350.81;;;3.11;88.48
48204;BME280;33994;50.998;5.864;2023-02-25T03:02:12;100345.63;;;3.11;88.62
48204;BME280;33994;50.998;5.864;2023-02-25T03:05:18;100346.50;;;3.11;88.75
48204;BME280;33994;50.998;5.864;2023-02-25T03:08:26;100343.91;;;3.11;88.56
48204;BME280;33994;50.998;5.864;2023-02-25T03:11:31;100346.50;;;3.11;88.71
48204;BME280;33994;50.998;5.864;2023-02-25T03:14:38;100345.63;;;3.11;88.75
48204;BME280;33994;50.998;5.864;2023-02-25T03:17:42;100351.66;;;3.11;88.61
48204;BME280;33994;50.998;5.864;2023-02-25T03:20:50;100356.84;;;3.11;88.44
48204;BME280;33994;50.998;5.864;2023-02-25T03:23:55;100352.53;;;3.09;88.51
48204;BME280;33994;50.998;5.864;2023-02-25T03:27:14;100353.41;;;3.09;88.42
48204;BME280;33994;50.998;5.864;2023-02-25T03:30:27;100344.75;;;3.07;88.49
48204;BME280;33994;50.998;5.864;2023-02-25T03:33:35;100350.78;;;3.08;88.43
48204;BME280;33994;50.998;5.864;2023-02-25T03:36:42;100348.19;;;3.06;88.59
48204;BME280;33994;50.998;5.864;2023-02-25T03:39:51;100349.91;;;3.07;88.49
48204;BME280;33994;50.998;5.864;2023-02-25T03:42:57;100349.06;;;3.07;88.49
48204;BME280;33994;50.998;5.864;2023-02-25T03:46:04;100349.09;;;3.10;88.48
48204;BME280;33994;50.998;5.864;2023-02-25T03:49:08;100348.25;;;3.12;88.30
48204;BME280;33994;50.998;5.864;2023-02-25T03:52:17;100354.28;;;3.14;88.11
48204;BME280;33994;50.998;5.864;2023-02-25T03:55:21;100353.41;;;3.15;88.08
48204;BME280;33994;50.998;5.864;2023-02-25T03:58:25;100351.69;;;3.14;88.09
48204;BME280;33994;50.998;5.864;2023-02-25T04:01:29;100357.69;;;3.12;88.12
48204;BME280;33994;50.998;5.864;2023-02-25T04:04:32;100359.47;;;3.16;87.77
48204;BME280;33994;50.998;5.864;2023-02-25T04:07:37;100355.19;;;3.17;88.05
48204;BME280;33994;50.998;5.864;2023-02-25T04:10:41;100355.19;;;3.18;87.79
48204;BME280;33994;50.998;5.864;2023-02-25T04:13:44;100356.91;;;3.19;87.71
48204;BME280;33994;50.998;5.864;2023-02-25T04:16:47;100362.06;;;3.18;87.80
48204;BME280;33994;50.998;5.864;2023-02-25T04:19:50;100362.94;;;3.17;87.82
48204;BME280;33994;50.998;5.864;2023-02-25T04:22:54;100360.34;;;3.17;87.81
48204;BME280;33994;50.998;5.864;2023-02-25T04:25:58;100362.06;;;3.18;87.71
48204;BME280;33994;50.998;5.864;2023-02-25T04:29:01;100365.50;;;3.20;87.62
48204;BME280;33994;50.998;5.864;2023-02-25T04:32:04;100362.97;;;3.23;87.58
48204;BME280;33994;50.998;5.864;2023-02-25T04:35:07;100364.69;;;3.22;87.48
48204;BME280;33994;50.998;5.864;2023-02-25T04:38:12;100369.84;;;3.22;87.04
48204;BME280;33994;50.998;5.864;2023-02-25T04:41:15;100370.72;;;3.23;87.02
48204;BME280;33994;50.998;5.864;2023-02-25T04:44:19;100374.97;;;3.19;86.38
48204;BME280;33994;50.998;5.864;2023-02-25T04:47:22;100374.09;;;3.15;86.48
48204;BME280;33994;50.998;5.864;2023-02-25T04:50:25;100377.53;;;3.13;86.67
48204;BME280;33994;50.998;5.864;2023-02-25T04:53:29;100369.75;;;3.11;86.78
48204;BME280;33994;50.998;5.864;2023-02-25T04:56:33;100363.75;;;3.12;87.23
48204;BME280;33994;50.998;5.864;2023-02-25T04:59:36;100362.91;;;3.15;87.52
48204;BME280;33994;50.998;5.864;2023-02-25T05:02:40;100367.22;;;3.18;87.44
48204;BME280;33994;50.998;5.864;2023-02-25T05:05:46;100369.00;;;3.22;87.59
48204;BME280;33994;50.998;5.864;2023-02-25T05:08:50;100371.56;;;3.22;87.65
48204;BME280;33994;50.998;5.864;2023-02-25T05:11:53;100368.09;;;3.18;87.50
48204;BME280;33994;50.998;5.864;2023-02-25T05:14:56;100372.41;;;3.18;87.38
48204;BME280;33994;50.998;5.864;2023-02-25T05:17:59;100370.69;;;3.17;87.32
48204;BME280;33994;50.998;5.864;2023-02-25T05:21:03;100371.50;;;3.15;87.46
48204;BME280;33994;50.998;5.864;2023-02-25T05:24:08;100373.22;;;3.15;87.44
48204;BME280;33994;50.998;5.864;2023-02-25T05:27:11;100376.66;;;3.11;87.41
48204;BME280;33994;50.998;5.864;2023-02-25T05:30:14;100366.31;;;3.09;87.24
48204;BME280;33994;50.998;5.864;2023-02-25T05:33:18;100381.81;;;3.09;87.56
48204;BME280;33994;50.998;5.864;2023-02-25T05:36:21;100375.75;;;3.07;87.53
48204;BME280;33994;50.998;5.864;2023-02-25T05:39:26;100382.63;;;3.04;87.51
48204;BME280;33994;50.998;5.864;2023-02-25T05:42:29;100384.34;;;3.02;87.75
48204;BME280;33994;50.998;5.864;2023-02-25T05:45:32;100369.66;;;2.99;87.64
48204;BME280;33994;50.998;5.864;2023-02-25T05:48:35;100371.38;;;2.99;87.71
48204;BME280;33994;50.998;5.864;2023-02-25T05:51:39;100366.22;;;2.99;87.83
48204;BME280;33994;50.998;5.864;2023-02-25T05:54:43;100366.22;;;2.99;87.67
48204;BME280;33994;50.998;5.864;2023-02-25T05:57:46;100373.06;;;2.97;87.63
48204;BME280;33994;50.998;5.864;2023-02-25T06:00:49;100363.63;;;2.97;87.84
48204;BME280;33994;50.998;5.864;2023-02-25T06:03:53;100368.75;;;2.94;87.92
48204;BME280;33994;50.998;5.864;2023-02-25T06:06:56;100381.66;;;2.89;88.00
48204;BME280;33994;50.998;5.864;2023-02-25T06:10:00;100377.31;;;2.87;87.98
48204;BME280;33994;50.998;5.864;2023-02-25T06:13:03;100380.75;;;2.86;87.95
48204;BME280;33994;50.998;5.864;2023-02-25T06:16:07;100377.28;;;2.84;87.97
48204;BME280;33994;50.998;5.864;2023-02-25T06:19:10;100386.72;;;2.79;87.92
48204;BME280;33994;50.998;5.864;2023-02-25T06:22:14;100387.53;;;2.76;87.83
48204;BME280;33994;50.998;5.864;2023-02-25T06:25:18;100393.56;;;2.75;87.99
48204;BME280;33994;50.998;5.864;2023-02-25T06:28:22;100401.31;;;2.77;88.11
48204;BME280;33994;50.998;5.864;2023-02-25T06:31:25;100410.81;;;2.79;87.85
48204;BME280;33994;50.998;5.864;2023-02-25T06:34:30;100408.22;;;2.81;87.66
48204;BME280;33994;50.998;5.864;2023-02-25T06:37:34;100408.19;;;2.76;87.67
48204;BME280;33994;50.998;5.864;2023-02-25T06:40:38;100409.91;;;2.74;87.72
48204;BME280;33994;50.998;5.864;2023-02-25T06:43:42;100406.44;;;2.74;87.85
48204;BME280;33994;50.998;5.864;2023-02-25T06:46:48;100409.88;;;2.71;87.59
48204;BME280;33994;50.998;5.864;2023-02-25T06:49:52;100406.38;;;2.69;87.71
48204;BME280;33994;50.998;5.864;2023-02-25T06:52:56;100415.03;;;2.73;87.52
48204;BME280;33994;50.998;5.864;2023-02-25T06:56:01;100427.94;;;2.73;87.40
48204;BME280;33994;50.998;5.864;2023-02-25T06:59:04;100432.22;;;2.67;87.08
48204;BME280;33994;50.998;5.864;2023-02-25T07:02:10;100430.50;;;2.70;87.36
48204;BME280;33994;50.998;5.864;2023-02-25T07:05:14;100423.66;;;2.72;87.11
48204;BME280;33994;50.998;5.864;2023-02-25T07:08:17;100433.13;;;2.71;87.05
48204;BME280;33994;50.998;5.864;2023-02-25T07:11:29;100442.63;;;2.75;87.14
48204;BME280;33994;50.998;5.864;2023-02-25T07:14:32;100439.22;;;2.81;86.58
48204;BME280;33994;50.998;5.864;2023-02-25T07:17:36;100457.41;;;2.91;86.66
48204;BME280;33994;50.998;5.864;2023-02-25T07:20:38;100450.56;;;2.97;86.26
48204;BME280;33994;50.998;5.864;2023-02-25T07:23:42;100463.53;;;2.98;85.39
48204;BME280;33994;50.998;5.864;2023-02-25T07:26:46;100461.81;;;2.97;84.99
48204;BME280;33994;50.998;5.864;2023-02-25T07:29:50;100462.69;;;3.01;85.02
48204;BME280;33994;50.998;5.864;2023-02-25T07:32:53;100458.34;;;2.98;84.72
48204;BME280;33994;50.998;5.864;2023-02-25T07:35:56;100461.81;;;3.00;84.69
48204;BME280;33994;50.998;5.864;2023-02-25T07:38:59;100466.16;;;3.01;84.67
48204;BME280;33994;50.998;5.864;2023-02-25T07:42:04;100459.25;;;3.02;84.74
48204;BME280;33994;50.998;5.864;2023-02-25T07:45:09;100467.88;;;3.02;84.62
48204;BME280;33994;50.998;5.864;2023-02-25T07:48:12;100466.19;;;3.07;84.89
48204;BME280;33994;50.998;5.864;2023-02-25T07:51:17;100462.75;;;3.07;85.01
48204;BME280;33994;50.998;5.864;2023-02-25T07:54:20;100467.13;;;3.12;85.13
48204;BME280;33994;50.998;5.864;2023-02-25T07:57:26;100466.25;;;3.13;84.89
48204;BME280;33994;50.998;5.864;2023-02-25T08:00:30;100469.66;;;3.11;85.01
48204;BME280;33994;50.998;5.864;2023-02-25T08:03:33;100458.50;;;3.13;85.13
48204;BME280;33994;50.998;5.864;2023-02-25T08:06:38;100468.88;;;3.20;85.25
48204;BME280;33994;50.998;5.864;2023-02-25T08:09:41;100471.53;;;3.27;85.29
48204;BME280;33994;50.998;5.864;2023-02-25T08:12:46;100483.59;;;3.25;84.84
48204;BME280;33994;50.998;5.864;2023-02-25T08:15:49;100476.72;;;3.24;84.78
48204;BME280;33994;50.998;5.864;2023-02-25T08:18:52;100474.97;;;3.26;84.78
48204;BME280;33994;50.998;5.864;2023-02-25T08:21:55;100478.47;;;3.30;84.60
48204;BME280;33994;50.998;5.864;2023-02-25T08:24:58;100480.19;;;3.28;84.44
48204;BME280;33994;50.998;5.864;2023-02-25T08:28:03;100486.22;;;3.30;84.30
48204;BME280;33994;50.998;5.864;2023-02-25T08:31:07;100485.44;;;3.37;84.32
48204;BME280;33994;50.998;5.864;2023-02-25T08:34:10;100481.16;;;3.39;84.11
48204;BME280;33994;50.998;5.864;2023-02-25T08:37:14;100483.75;;;3.42;84.15
48204;BME280;33994;50.998;5.864;2023-02-25T08:40:17;100476.91;;;3.47;84.06
48204;BME280;33994;50.998;5.864;2023-02-25T08:43:22;100484.69;;;3.50;83.75
48204;BME280;33994;50.998;5.864;2023-02-25T08:46:27;100489.03;;;3.54;83.35
48204;BME280;33994;50.998;5.864;2023-02-25T08:49:31;100488.19;;;3.55;83.32
48204;BME280;33994;50.998;5.864;2023-02-25T08:52:34;100495.09;;;3.61;83.25
48204;BME280;33994;50.998;5.864;2023-02-25T08:55:37;100486.50;;;3.65;82.87
48204;BME280;33994;50.998;5.864;2023-02-25T08:58:42;100480.50;;;3.66;82.51
48204;BME280;33994;50.998;5.864;2023-02-25T09:01:45;100484.81;;;3.69;82.53
48204;BME280;33994;50.998;5.864;2023-02-25T09:04:48;100493.50;;;3.74;82.50
48204;BME280;33994;50.998;5.864;2023-02-25T09:07:52;100490.97;;;3.81;82.54
48204;BME280;33994;50.998;5.864;2023-02-25T09:10:55;100500.50;;;3.88;82.19
48204;BME280;33994;50.998;5.864;2023-02-25T09:13:59;100498.78;;;3.92;81.92
48204;BME280;33994;50.998;5.864;2023-02-25T09:17:03;100496.25;;;3.97;81.78
48204;BME280;33994;50.998;5.864;2023-02-25T09:20:08;100495.41;;;4.01;81.71
48204;BME280;33994;50.998;5.864;2023-02-25T09:23:11;100505.78;;;4.05;81.63
48204;BME280;33994;50.998;5.864;2023-02-25T09:26:14;100498.91;;;4.10;81.64
48204;BME280;33994;50.998;5.864;2023-02-25T09:29:18;100496.34;;;4.12;81.58
48204;BME280;33994;50.998;5.864;2023-02-25T09:32:21;100486.84;;;4.12;81.79
48204;BME280;33994;50.998;5.864;2023-02-25T09:35:24;100491.19;;;4.17;81.48
48204;BME280;33994;50.998;5.864;2023-02-25T09:38:28;100494.66;;;4.17;81.18
48204;BME280;33994;50.998;5.864;2023-02-25T09:41:34;100492.94;;;4.19;81.13
48204;BME280;33994;50.998;5.864;2023-02-25T09:44:43;100499.00;;;4.24;81.23
48204;BME280;33994;50.998;5.864;2023-02-25T09:47:50;100495.56;;;4.24;80.95
48204;BME280;33994;50.998;5.864;2023-02-25T09:50:57;100528.31;;;4.20;80.89
48204;BME280;33994;50.998;5.864;2023-02-25T09:54:13;100517.09;;;4.21;80.59
48204;BME280;33994;50.998;5.864;2023-02-25T09:57:19;100527.47;;;4.20;80.27
48204;BME280;33994;50.998;5.864;2023-02-25T10:00:24;100532.63;;;4.21;80.51
48204;BME280;33994;50.998;5.864;2023-02-25T10:03:39;100533.53;;;4.25;80.93
48204;BME280;33994;50.998;5.864;2023-02-25T10:06:46;100530.06;;;4.26;80.95
48204;BME280;33994;50.998;5.864;2023-02-25T10:09:53;100529.25;;;4.31;80.81
48204;BME280;33994;50.998;5.864;2023-02-25T10:13:06;100524.97;;;4.36;80.52
48204;BME280;33994;50.998;5.864;2023-02-25T10:16:38;100536.22;;;4.38;79.90
48204;BME280;33994;50.998;5.864;2023-02-25T10:19:57;100532.78;;;4.43;80.14
48204;BME280;33994;50.998;5.864;2023-02-25T10:23:08;100531.06;;;4.46;79.66
48204;BME280;33994;50.998;5.864;2023-02-25T10:26:18;100533.66;;;4.49;79.60
48204;BME280;33994;50.998;5.864;2023-02-25T10:29:25;100535.41;;;4.52;79.78
48204;BME280;33994;50.998;5.864;2023-02-25T10:32:34;100549.22;;;4.55;79.12
48204;BME280;33994;50.998;5.864;2023-02-25T10:35:38;100550.09;;;4.54;78.96
48204;BME280;33994;50.998;5.864;2023-02-25T10:38:45;100564.81;;;4.61;79.14
48204;BME280;33994;50.998;5.864;2023-02-25T10:41:49;100564.81;;;4.61;77.87
48204;BME280;33994;50.998;5.864;2023-02-25T10:44:53;100557.91;;;4.63;78.34
48204;BME280;33994;50.998;5.864;2023-02-25T10:48:03;100557.94;;;4.67;78.01
48204;BME280;33994;50.998;5.864;2023-02-25T10:51:10;100561.38;;;4.66;77.64
48204;BME280;33994;50.998;5.864;2023-02-25T10:54:13;100561.38;;;4.66;77.87
48204;BME280;33994;50.998;5.864;2023-02-25T10:57:18;100565.69;;;4.67;77.69
48204;BME280;33994;50.998;5.864;2023-02-25T11:00:26;100563.97;;;4.66;76.99
48204;BME280;33994;50.998;5.864;2023-02-25T11:03:33;100565.72;;;4.70;77.21
48204;BME280;33994;50.998;5.864;2023-02-25T11:06:42;100564.03;;;4.76;77.26
48204;BME280;33994;50.998;5.864;2023-02-25T11:09:45;100570.94;;;4.77;76.92
48204;BME280;33994;50.998;5.864;2023-02-25T11:12:50;100569.25;;;4.87;76.89
48204;BME280;33994;50.998;5.864;2023-02-25T11:15:54;100561.56;;;4.96;76.90
48204;BME280;33994;50.998;5.864;2023-02-25T11:19:00;100565.00;;;4.98;75.98
48204;BME280;33994;50.998;5.864;2023-02-25T11:22:09;100551.16;;;4.95;75.32
48204;BME280;33994;50.998;5.864;2023-02-25T11:25:16;100557.25;;;5.03;75.63
48204;BME280;33994;50.998;5.864;2023-02-25T11:28:27;100564.16;;;5.04;75.24
48204;BME280;33994;50.998;5.864;2023-02-25T11:31:35;100634.78;;;4.66;77.72
48204;BME280;33994;50.998;5.864;2023-02-25T11:34:46;100642.44;;;3.52;82.29
48204;BME280;33994;50.998;5.864;2023-02-25T11:37:50;100648.53;;;2.88;84.57
48204;BME280;33994;50.998;5.864;2023-02-25T11:40:54;100636.00;;;2.52;86.53
48204;BME280;33994;50.998;5.864;2023-02-25T11:43:57;100622.81;;;2.34;88.34
48204;BME280;33994;50.998;5.864;2023-02-25T11:47:20;100613.34;;;2.34;89.73
48204;BME280;33994;50.998;5.864;2023-02-25T11:50:29;100592.00;;;2.45;89.33
48204;BME280;33994;50.998;5.864;2023-02-25T11:53:46;100597.25;;;2.52;88.46
48204;BME280;33994;50.998;5.864;2023-02-25T11:56:54;100601.75;;;2.65;88.16
48204;BME280;33994;50.998;5.864;2023-02-25T12:00:09;100602.75;;;2.77;87.63
48204;BME280;33994;50.998;5.864;2023-02-25T12:03:38;100598.63;;;2.89;87.83
48204;BME280;33994;50.998;5.864;2023-02-25T12:07:01;100606.50;;;3.00;88.04
48204;BME280;33994;50.998;5.864;2023-02-25T12:10:34;100607.47;;;3.08;88.24
48204;BME280;33994;50.998;5.864;2023-02-25T12:14:17;100592.88;;;3.13;88.51
48204;BME280;33994;50.998;5.864;2023-02-25T12:17:57;100597.25;;;3.18;88.62
48204;BME280;33994;50.998;5.864;2023-02-25T12:21:35;100601.63;;;3.25;88.93
48204;BME280;33994;50.998;5.864;2023-02-25T12:25:13;100594.78;;;3.30;89.17
48204;BME280;33994;50.998;5.864;2023-02-25T12:28:36;100588.97;;;3.48;89.88
48204;BME280;33994;50.998;5.864;2023-02-25T12:32:02;100593.31;;;3.53;89.50
48204;BME280;33994;50.998;5.864;2023-02-25T12:35:22;100596.81;;;3.60;87.96
48204;BME280;33994;50.998;5.864;2023-02-25T12:38:56;100591.75;;;3.71;89.23
48204;BME280;33994;50.998;5.864;2023-02-25T12:42:16;100586.69;;;3.83;88.84
48204;BME280;33994;50.998;5.864;2023-02-25T12:45:58;100587.69;;;3.97;88.50
48204;BME280;33994;50.998;5.864;2023-02-25T12:49:19;100580.88;;;4.08;88.59
48204;BME280;33994;50.998;5.864;2023-02-25T12:52:35;100586.97;;;4.17;88.24
48204;BME280;33994;50.998;5.864;2023-02-25T12:55:55;100582.72;;;4.26;87.87
48204;BME280;33994;50.998;5.864;2023-02-25T12:59:22;100580.19;;;4.37;87.56
48204;BME280;33994;50.998;5.864;2023-02-25T13:02:37;100582.84;;;4.43;82.22
48204;BME280;33994;50.998;5.864;2023-02-25T13:05:54;100582.03;;;4.56;78.70
48204;BME280;33994;50.998;5.864;2023-02-25T13:09:14;100576.94;;;4.72;77.13
48204;BME280;33994;50.998;5.864;2023-02-25T13:12:36;100573.53;;;4.82;75.96
48204;BME280;33994;50.998;5.864;2023-02-25T13:15:56;100561.47;;;4.87;74.11
48204;BME280;33994;50.998;5.864;2023-02-25T13:19:15;100575.28;;;4.86;74.36
48204;BME280;33994;50.998;5.864;2023-02-25T13:22:31;100574.38;;;4.79;72.95
48204;BME280;33994;50.998;5.864;2023-02-25T13:25:49;100586.44;;;4.70;70.27
48204;BME280;33994;50.998;5.864;2023-02-25T13:29:25;100585.53;;;4.65;68.26
48204;BME280;33994;50.998;5.864;2023-02-25T13:32:36;100577.78;;;4.61;69.89
48204;BME280;33994;50.998;5.864;2023-02-25T13:35:50;100590.75;;;4.68;70.63
48204;BME280;33994;50.998;5.864;2023-02-25T13:39:12;100583.88;;;4.73;69.55
48204;BME280;33994;50.998;5.864;2023-02-25T13:42:28;100596.84;;;4.73;68.36
48204;BME280;33994;50.998;5.864;2023-02-25T13:49:27;100599.41;;;4.74;66.18
48204;BME280;33994;50.998;5.864;2023-02-25T13:52:44;100598.56;;;4.77;65.05
48204;BME280;33994;50.998;5.864;2023-02-25T13:56:06;100599.41;;;4.76;66.13
48204;BME280;33994;50.998;5.864;2023-02-25T13:59:22;100615.88;;;4.81;67.12
48204;BME280;33994;50.998;5.864;2023-02-25T14:02:55;100611.53;;;4.83;67.29
48204;BME280;33994;50.998;5.864;2023-02-25T14:06:15;100615.88;;;4.87;68.25
48204;BME280;33994;50.998;5.864;2023-02-25T14:09:34;100609.06;;;4.92;68.24
48204;BME280;33994;50.998;5.864;2023-02-25T14:12:51;100628.06;;;4.94;68.46
48204;BME280;33994;50.998;5.864;2023-02-25T14:16:02;100614.22;;;4.95;68.12
48204;BME280;33994;50.998;5.864;2023-02-25T14:19:23;100618.59;;;5.01;67.86
48204;BME280;33994;50.998;5.864;2023-02-25T14:22:38;100630.72;;;5.08;67.84
48204;BME280;33994;50.998;5.864;2023-02-25T14:26:00;100626.44;;;5.15;66.37
48204;BME280;33994;50.998;5.864;2023-02-25T14:29:19;100629.03;;;5.21;65.86
48204;BME280;33994;50.998;5.864;2023-02-25T14:32:36;100637.69;;;5.23;62.94
48204;BME280;33994;50.998;5.864;2023-02-25T14:36:05;100634.19;;;5.12;61.82
48204;BME280;33994;50.998;5.864;2023-02-25T14:39:37;100655.75;;;5.03;62.50
48204;BME280;33994;50.998;5.864;2023-02-25T14:46:23;100677.19;;;4.82;59.90
48204;BME280;33994;50.998;5.864;2023-02-25T14:49:34;100660.72;;;4.75;60.78
48204;BME280;33994;50.998;5.864;2023-02-25T14:53:01;100660.72;;;4.72;59.29
48204;BME280;33994;50.998;5.864;2023-02-25T15:03:29;100664.25;;;4.80;57.96
48204;BME280;33994;50.998;5.864;2023-02-25T15:06:50;100671.16;;;4.86;58.24
48204;BME280;33994;50.998;5.864;2023-02-25T15:10:11;100668.59;;;4.91;58.04
48204;BME280;33994;50.998;5.864;2023-02-25T15:17:26;100678.97;;;4.89;57.68
48204;BME280;33994;50.998;5.864;2023-02-25T15:20:32;100690.19;;;4.90;56.65
48204;BME280;33994;50.998;5.864;2023-02-25T15:23:48;100689.31;;;4.87;54.37
48204;BME280;33994;50.998;5.864;2023-02-25T15:26:54;100697.09;;;4.89;54.68
48204;BME280;33994;50.998;5.864;2023-02-25T15:29:59;100702.28;;;4.84;53.86
48204;BME280;33994;50.998;5.864;2023-02-25T15:33:13;100703.09;;;4.83;54.10
48204;BME280;33994;50.998;5.864;2023-02-25T15:36:22;100716.88;;;4.75;53.85
48204;BME280;33994;50.998;5.864;2023-02-25T15:39:47;100715.97;;;4.70;52.61
48204;BME280;33994;50.998;5.864;2023-02-25T15:42:53;100734.88;;;4.59;51.69
48204;BME280;33994;50.998;5.864;2023-02-25T15:49:31;100733.94;;;4.48;53.58
48204;BME280;33994;50.998;5.864;2023-02-25T15:52:55;100732.25;;;4.50;53.94
48204;BME280;33994;50.998;5.864;2023-02-25T15:56:30;100743.41;;;4.43;52.63
48204;BME280;33994;50.998;5.864;2023-02-25T15:59:48;100750.28;;;4.41;52.89
48204;BME280;33994;50.998;5.864;2023-02-25T16:02:53;100760.63;;;4.40;53.41
48204;BME280;33994;50.998;5.864;2023-02-25T16:06:03;100759.72;;;4.36;52.81
48204;BME280;33994;50.998;5.864;2023-02-25T16:09:09;100756.25;;;4.34;52.98
48204;BME280;33994;50.998;5.864;2023-02-25T16:12:15;100771.78;;;4.31;52.77
48204;BME280;33994;50.998;5.864;2023-02-25T16:15:24;100764.84;;;4.27;53.06
48204;BME280;33994;50.998;5.864;2023-02-25T16:18:31;100772.56;;;4.25;52.46
48204;BME280;33994;50.998;5.864;2023-02-25T16:21:40;100775.13;;;4.21;52.20
48204;BME280;33994;50.998;5.864;2023-02-25T16:24:47;100780.25;;;4.18;52.63
48204;BME280;33994;50.998;5.864;2023-02-25T16:27:55;100789.69;;;4.12;51.58
48204;BME280;33994;50.998;5.864;2023-02-25T16:31:09;100796.53;;;4.07;51.42
48204;BME280;33994;50.998;5.864;2023-02-25T16:34:19;100796.47;;;4.01;51.18
48204;BME280;33994;50.998;5.864;2023-02-25T16:37:31;100797.34;;;4.00;51.01
48204;BME280;33994;50.998;5.864;2023-02-25T16:40:42;100805.91;;;3.96;51.03
48204;BME280;33994;50.998;5.864;2023-02-25T16:43:46;100795.53;;;3.93;51.17
48204;BME280;33994;50.998;5.864;2023-02-25T16:46:51;100804.13;;;3.92;51.22
48204;BME280;33994;50.998;5.864;2023-02-25T16:49:57;100826.53;;;3.92;50.77
48204;BME280;33994;50.998;5.864;2023-02-25T16:53:02;100822.19;;;3.87;50.64
48204;BME280;33994;50.998;5.864;2023-02-25T16:56:12;100823.84;;;3.84;50.44
48204;BME280;33994;50.998;5.864;2023-02-25T16:59:18;100823.81;;;3.79;50.20
48204;BME280;33994;50.998;5.864;2023-02-25T17:02:23;100835.78;;;3.73;49.56
48204;BME280;33994;50.998;5.864;2023-02-25T17:05:29;100840.09;;;3.71;50.01
48204;BME280;33994;50.998;5.864;2023-02-25T17:08:34;100844.34;;;3.67;49.75